Time;durP1;ratioP1;P1;durP2;ratioP2;P2;SDS_P1;SDS_P2;PMS_P1;PMS_P2;Temp;Humidity;BMP_temperature;BMP_pressure;BME280_temperature;BME280_humidity;BME280_pressure;Samples;Min_cycle;Max_cycle;Signal;HPM_P1;HPM_P2
2022/06/23 00:00:59;;;;;;;;;;;;;;;;;;6218969;23;19914;-85
2022/06/23 00:03:24;;;;;;;;;;;;;;;;;;6259348;22;19915;-86
2022/06/23 00:05:57;;;;;;;;;;;;;;;;;;6252017;22;19911;-85
2022/06/23 00:08:23;;;;;;;;;;;;;;;;;;6249510;23;19907;-85
2022/06/23 00:10:50;;;;;;;;;;;;;;;;;;6254027;23;19983;-86
2022/06/23 00:13:35;;;;;;;;;;;;;;;;;;6224734;23;19939;-86
2022/06/23 00:16:01;;;;;;;;;;;;;;;;;;6244334;23;19907;-85
2022/06/23 00:18:27;;;;;;;;;;;;;;;;;;6218376;23;20335;-85
2022/06/23 00:20:53;;;;;;;;;;;;;;;;;;6245441;23;19908;-86
2022/06/23 00:23:29;;;;;;;;;;;;;;;;;;6251050;23;19943;-84
2022/06/23 00:25:57;;;;;;;;;;;;;;;;;;6230727;23;19962;-86
2022/06/23 00:28:23;;;;;;;;;;;;;;;;;;6218300;23;20331;-85
2022/06/23 00:30:53;;;;;;;;;;;;;;;;;;6245185;23;19907;-85
2022/06/23 00:33:20;;;;;;;;;;;;;;;;;;6218702;23;19908;-85
2022/06/23 00:35:46;;;;;;;;;;;;;;;;;;6218705;23;19914;-85
2022/06/23 00:38:16;;;;;;;;;;;;;;;;;;6193405;23;19931;-85
2022/06/23 00:40:42;;;;;;;;;;;;;;;;;;6218563;23;19907;-85
2022/06/23 00:43:07;;;;;;;;;;;;;;;;;;6245545;23;20036;-85
2022/06/23 00:45:51;;;;;;;;;;;;;;;;;;6235211;23;20284;-85
2022/06/23 00:48:16;;;;;;;;;;;;;;;;;;6245845;23;19908;-85
2022/06/23 00:50:48;;;;;;;;;;;;;;;;;;6244726;23;19930;-85
2022/06/23 00:53:26;;;;;;;;;;;;;;;;;;6245212;23;19903;-85
2022/06/23 00:55:51;;;;;;;;;;;;;;;;;;6245172;23;19982;-85
2022/06/23 00:58:19;;;;;;;;;;;;;;;;;;6244810;23;19911;-85
2022/06/23 01:00:44;;;;;;;;;;;;;;;;;;6218095;23;19908;-85
2022/06/23 01:03:21;;;;;;;;;;;;;;;;;;6218764;23;20235;-85
2022/06/23 01:05:51;;;;;;;;;;;;;;;;;;6239048;23;19929;-86
2022/06/23 01:08:23;;;;;;;;;;;;;;;;;;6222725;23;19907;-85
2022/06/23 01:10:49;;;;;;;;;;;;;;;;;;6245165;23;19907;-84
2022/06/23 01:13:17;;;;;;;;;;;;;;;;;;6245982;23;19915;-84
2022/06/23 01:15:44;;;;;;;;;;;;;;;;;;6219399;23;19960;-84
2022/06/23 01:18:24;;;;;;;;;;;;;;;;;;6244975;23;19911;-84
2022/06/23 01:20:49;;;;;;;;;;;;;;;;;;6218552;23;19907;-85
2022/06/23 01:23:23;;;;;;;;;;;;;;;;;;6245278;23;19923;-85
2022/06/23 01:26:07;;;;;;;;;;;;;;;;;;6263025;22;19912;-86
2022/06/23 01:28:36;;;;;;;;;;;;;;;;;;6245902;23;19914;-85
2022/06/23 01:31:15;;;;;;;;;;;;;;;;;;6218793;23;20266;-86
2022/06/23 01:33:57;;;;;;;;;;;;;;;;;;6220148;23;20263;-86
2022/06/23 01:36:41;;;;;;;;;;;;;;;;;;6244724;23;20366;-86
2022/06/23 01:39:15;;;;;;;;;;;;;;;;;;6245034;23;19907;-85
2022/06/23 01:41:46;;;;;;;;;;;;;;;;;;6245099;23;20007;-84
2022/06/23 01:44:30;;;;;;;;;;;;;;;;;;6218132;23;19908;-85
2022/06/23 01:46:56;;;;;;;;;;;;;;;;;;6255284;22;19912;-84
2022/06/23 01:49:26;;;;;;;;;;;;;;;;;;6194078;23;19965;-85
2022/06/23 01:51:52;;;;;;;;;;;;;;;;;;6218606;23;19942;-85
2022/06/23 01:54:20;;;;;;;;;;;;;;;;;;6218305;23;19914;-85
2022/06/23 01:56:55;;;;;;;;;;;;;;;;;;6244842;23;20327;-85
2022/06/23 01:59:32;;;;;;;;;;;;;;;;;;6244910;23;19915;-85
2022/06/23 02:02:10;;;;;;;;;;;;;;;;;;6218009;23;19957;-85
2022/06/23 02:04:56;;;;;;;;;;;;;;;;;;6244415;23;19907;-85
2022/06/23 02:07:24;;;;;;;;;;;;;;;;;;6236701;23;19911;-85
2022/06/23 02:09:52;;;;;;;;;;;;;;;;;;6246721;23;19946;-86
2022/06/23 02:12:29;;;;;;;;;;;;;;;;;;6218078;23;19908;-85
2022/06/23 02:14:54;;;;;;;;;;;;;;;;;;6217733;23;19914;-85
2022/06/23 02:17:28;;;;;;;;;;;;;;;;;;6243965;23;19912;-85
2022/06/23 02:19:54;;;;;;;;;;;;;;;;;;6192273;23;19907;-85
2022/06/23 02:22:34;;;;;;;;;;;;;;;;;;6217657;23;19926;-86
2022/06/23 02:25:10;;;;;;;;;;;;;;;;;;6192822;23;20333;-86
2022/06/23 02:27:38;;;;;;;;;;;;;;;;;;6203236;23;20212;-85
2022/06/23 02:30:05;;;;;;;;;;;;;;;;;;6220075;23;19907;-86
2022/06/23 02:32:35;;;;;;;;;;;;;;;;;;6244432;23;20311;-85
2022/06/23 02:35:02;;;;;;;;;;;;;;;;;;6192769;23;19957;-85
2022/06/23 02:37:54;;;;;;;;;;;;;;;;;;6219224;23;19978;-85
2022/06/23 02:40:22;;;;;;;;;;;;;;;;;;6241759;23;19908;-85
2022/06/23 02:42:53;;;;;;;;;;;;;;;;;;6246344;23;19908;-85
2022/06/23 02:45:22;;;;;;;;;;;;;;;;;;6219805;23;20315;-85
2022/06/23 02:48:06;;;;;;;;;;;;;;;;;;6209247;23;19899;-85
2022/06/23 02:50:49;;;;;;;;;;;;;;;;;;6247415;23;19943;-86
2022/06/23 02:53:17;;;;;;;;;;;;;;;;;;6219578;23;19912;-85
2022/06/23 02:56:01;;;;;;;;;;;;;;;;;;6246274;23;19907;-85
2022/06/23 02:58:28;;;;;;;;;;;;;;;;;;6246182;23;20322;-85
2022/06/23 03:00:59;;;;;;;;;;;;;;;;;;6219079;23;19908;-85
2022/06/23 03:03:24;;;;;;;;;;;;;;;;;;6194097;23;19913;-85
2022/06/23 03:05:51;;;;;;;;;;;;;;;;;;6246292;23;19938;-85
2022/06/23 03:08:19;;;;;;;;;;;;;;;;;;6239392;23;19915;-84
2022/06/23 03:10:49;;;;;;;;;;;;;;;;;;6246879;23;20390;-85
2022/06/23 03:13:15;;;;;;;;;;;;;;;;;;6219739;23;20458;-85
2022/06/23 03:15:44;;;;;;;;;;;;;;;;;;6246066;23;19978;-85
2022/06/23 03:18:10;;;;;;;;;;;;;;;;;;6219736;23;19911;-85
2022/06/23 03:20:38;;;;;;;;;;;;;;;;;;6246457;23;20293;-86
2022/06/23 03:23:04;;;;;;;;;;;;;;;;;;6245834;23;20255;-85
2022/06/23 03:25:32;;;;;;;;;;;;;;;;;;6246795;23;19907;-85
2022/06/23 03:27:59;;;;;;;;;;;;;;;;;;6258714;23;19919;-85
2022/06/23 03:30:35;;;;;;;;;;;;;;;;;;6220369;23;19907;-85
2022/06/23 03:33:03;;;;;;;;;;;;;;;;;;6219026;23;19908;-85
2022/06/23 03:35:36;;;;;;;;;;;;;;;;;;6219768;23;19907;-84
2022/06/23 03:38:11;;;;;;;;;;;;;;;;;;6246010;23;19907;-84
2022/06/23 03:43:33;;;;;;;;;;;;;;;;;;6192913;23;19907;-85
2022/06/23 03:46:01;;;;;;;;;;;;;;;;;;6219962;23;19914;-85
2022/06/23 03:48:56;;;;;;;;;;;;;;;;;;6260035;22;20254;-85
2022/06/23 03:51:22;;;;;;;;;;;;;;;;;;6139535;23;19909;-85
2022/06/23 03:53:48;;;;;;;;;;;;;;;;;;6219180;23;19914;-87
2022/06/23 03:56:17;;;;;;;;;;;;;;;;;;6246174;23;19908;-86
2022/06/23 03:58:45;;;;;;;;;;;;;;;;;;6219112;23;20334;-86
2022/06/23 04:01:11;;;;;;;;;;;;;;;;;;6245553;23;19908;-86
2022/06/23 04:03:57;;;;;;;;;;;;;;;;;;6219432;23;19914;-83
2022/06/23 04:06:32;;;;;;;;;;;;;;;;;;6249226;23;19908;-85
2022/06/23 04:09:05;;;;;;;;;;;;;;;;;;6229624;23;19911;-83
2022/06/23 04:11:44;;;;;;;;;;;;;;;;;;6218927;23;20319;-77
2022/06/23 04:14:15;;;;;;;;;;;;;;;;;;6220998;23;20238;-77
2022/06/23 04:16:40;;;;;;;;;;;;;;;;;;6246119;23;19907;-76
2022/06/23 04:19:10;;;;;;;;;;;;;;;;;;6245415;23;19989;-77
2022/06/23 04:21:39;;;;;;;;;;;;;;;;;;6218213;23;19914;-77
2022/06/23 04:24:04;;;;;;;;;;;;;;;;;;6219088;23;19907;-77
2022/06/23 04:26:31;;;;;;;;;;;;;;;;;;6218817;23;19908;-78
2022/06/23 04:28:57;;;;;;;;;;;;;;;;;;6227735;23;20326;-78
2022/06/23 04:31:27;;;;;;;;;;;;;;;;;;6218864;23;19908;-78
2022/06/23 04:33:52;;;;;;;;;;;;;;;;;;6192702;23;19938;-77
2022/06/23 04:36:19;;;;;;;;;;;;;;;;;;6218391;23;20289;-78
2022/06/23 04:38:46;;;;;;;;;;;;;;;;;;6221168;23;19934;-78
2022/06/23 04:41:17;;;;;;;;;;;;;;;;;;6226124;23;19927;-78
2022/06/23 04:43:46;;;;;;;;;;;;;;;;;;6231434;23;19914;-79
2022/06/23 04:46:19;;;;;;;;;;;;;;;;;;6218757;23;19903;-78
2022/06/23 04:48:54;;;;;;;;;;;;;;;;;;6207170;23;19907;-79
2022/06/23 04:51:25;;;;;;;;;;;;;;;;;;6243411;23;20319;-77
2022/06/23 04:53:53;;;;;;;;;;;;;;;;;;6243742;23;20342;-78
2022/06/23 04:56:20;;;;;;;;;;;;;;;;;;6240576;23;19958;-77
2022/06/23 04:58:50;;;;;;;;;;;;;;;;;;6214530;23;19907;-76
2022/06/23 05:01:17;;;;;;;;;;;;;;;;;;6214566;23;19913;-77
2022/06/23 05:03:53;;;;;;;;;;;;;;;;;;6240441;23;20322;-77
2022/06/23 05:06:28;;;;;;;;;;;;;;;;;;6213923;23;20348;-80
2022/06/23 05:08:53;;;;;;;;;;;;;;;;;;6251160;23;20254;-79
2022/06/23 05:11:42;;;;;;;;;;;;;;;;;;6216622;23;19915;-80
2022/06/23 05:14:13;;;;;;;;;;;;;;;;;;6201329;23;19910;-78
2022/06/23 05:16:43;;;;;;;;;;;;;;;;;;6191989;23;19915;-81
2022/06/23 05:19:10;;;;;;;;;;;;;;;;;;6189434;23;19964;-80
2022/06/23 05:21:42;;;;;;;;;;;;;;;;;;6214925;23;19908;-79
2022/06/23 05:24:33;;;;;;;;;;;;;;;;;;6218901;23;19907;-79
2022/06/23 05:26:59;;;;;;;;;;;;;;;;;;6215783;23;20306;-78
2022/06/23 05:29:39;;;;;;;;;;;;;;;;;;6260757;23;19934;-81
2022/06/23 05:32:12;;;;;;;;;;;;;;;;;;6219476;23;19930;-81
2022/06/23 05:34:43;;;;;;;;;;;;;;;;;;6193219;23;19907;-79
2022/06/23 05:37:17;;;;;;;;;;;;;;;;;;6193282;23;19908;-80
2022/06/23 05:39:45;;;;;;;;;;;;;;;;;;6219181;23;19915;-81
2022/06/23 05:42:23;;;;;;;;;;;;;;;;;;6245392;23;19907;-79
2022/06/23 05:45:03;;;;;;;;;;;;;;;;;;6218774;23;20354;-82
2022/06/23 05:47:47;;;;;;;;;;;;;;;;;;6221472;23;20381;-80
2022/06/23 05:50:15;;;;;;;;;;;;;;;;;;6258531;23;19908;-80
2022/06/23 05:52:42;;;;;;;;;;;;;;;;;;6217125;23;19908;-79
2022/06/23 05:55:16;;;;;;;;;;;;;;;;;;6217905;23;20025;-77
2022/06/23 05:57:51;;;;;;;;;;;;;;;;;;6245675;23;19951;-78
2022/06/23 06:00:28;;;;;;;;;;;;;;;;;;6243776;23;20318;-79
2022/06/23 06:02:53;;;;;;;;;;;;;;;;;;6244679;23;19908;-80
2022/06/23 06:05:26;;;;;;;;;;;;;;;;;;6216680;23;19908;-80
2022/06/23 06:07:52;;;;;;;;;;;;;;;;;;6243593;23;19915;-78
2022/06/23 06:10:19;;;;;;;;;;;;;;;;;;6241991;23;19895;-77
2022/06/23 06:12:44;;;;;;;;;;;;;;;;;;6248916;23;20338;-79
2022/06/23 06:15:13;;;;;;;;;;;;;;;;;;6218640;23;19907;-79
2022/06/23 06:17:38;;;;;;;;;;;;;;;;;;6218901;23;19911;-80
2022/06/23 06:20:05;;;;;;;;;;;;;;;;;;6194372;23;19966;-80
2022/06/23 06:22:40;;;;;;;;;;;;;;;;;;6221651;23;19970;-80
2022/06/23 06:25:15;;;;;;;;;;;;;;;;;;6248672;23;19930;-81
2022/06/23 06:27:46;;;;;;;;;;;;;;;;;;6247533;23;20089;-80
2022/06/23 06:30:13;;;;;;;;;;;;;;;;;;6253117;23;19907;-79
2022/06/23 06:32:39;;;;;;;;;;;;;;;;;;6226039;23;20399;-78
2022/06/23 06:35:13;;;;;;;;;;;;;;;;;;6249311;23;19982;-77
2022/06/23 06:37:39;;;;;;;;;;;;;;;;;;6229137;23;19907;-80
2022/06/23 06:40:05;;;;;;;;;;;;;;;;;;6218964;23;19914;-79
2022/06/23 06:42:32;;;;;;;;;;;;;;;;;;6219576;23;20319;-81
2022/06/23 06:44:57;;;;;;;;;;;;;;;;;;6245113;23;19982;-80
2022/06/23 06:47:26;;;;;;;;;;;;;;;;;;6248025;23;19907;-79
2022/06/23 06:49:55;;;;;;;;;;;;;;;;;;6219796;23;20061;-79
2022/06/23 06:52:20;;;;;;;;;;;;;;;;;;6206308;23;19914;-79
2022/06/23 06:54:46;;;;;;;;;;;;;;;;;;6246839;23;19908;-80
2022/06/23 06:57:31;;;;;;;;;;;;;;;;;;6221012;23;19950;-79
2022/06/23 07:00:04;;;;;;;;;;;;;;;;;;6218768;23;20314;-78
2022/06/23 07:02:34;;;;;;;;;;;;;;;;;;6244238;23;19957;-79
2022/06/23 07:05:04;;;;;;;;;;;;;;;;;;6216970;23;20290;-82
2022/06/23 07:07:33;;;;;;;;;;;;;;;;;;6217695;23;19982;-78
2022/06/23 07:10:00;;;;;;;;;;;;;;;;;;6245079;23;19908;-77
2022/06/23 07:12:30;;;;;;;;;;;;;;;;;;6253908;23;19912;-78
2022/06/23 07:15:14;;;;;;;;;;;;;;;;;;6243935;23;19943;-79
2022/06/23 07:17:53;;;;;;;;;;;;;;;;;;6218856;23;20049;-79
2022/06/23 07:20:25;;;;;;;;;;;;;;;;;;6217317;23;20273;-78
2022/06/23 07:22:52;;;;;;;;;;;;;;;;;;6218407;23;19908;-78
2022/06/23 07:25:33;;;;;;;;;;;;;;;;;;6225578;23;19914;-79
2022/06/23 07:28:14;;;;;;;;;;;;;;;;;;6217586;23;19918;-77
2022/06/23 07:30:42;;;;;;;;;;;;;;;;;;6245258;23;19915;-76
2022/06/23 07:33:34;;;;;;;;;;;;;;;;;;6226537;23;19963;-75
2022/06/23 07:36:01;;;;;;;;;;;;;;;;;;6238857;23;19908;-76
2022/06/23 07:38:26;;;;;;;;;;;;;;;;;;6217576;23;20054;-77
2022/06/23 07:41:03;;;;;;;;;;;;;;;;;;6242952;23;19907;-76
2022/06/23 07:43:38;;;;;;;;;;;;;;;;;;6211316;23;19911;-76
2022/06/23 07:46:03;;;;;;;;;;;;;;;;;;6241778;23;19907;-77
2022/06/23 07:48:30;;;;;;;;;;;;;;;;;;6241436;23;19974;-75
2022/06/23 07:50:56;;;;;;;;;;;;;;;;;;6242173;23;19911;-78
2022/06/23 07:53:22;;;;;;;;;;;;;;;;;;6228125;23;19919;-78
2022/06/23 07:55:48;;;;;;;;;;;;;;;;;;6214107;23;19907;-78
2022/06/23 07:58:14;;;;;;;;;;;;;;;;;;6215565;23;19908;-78
2022/06/23 08:00:41;;;;;;;;;;;;;;;;;;6243106;23;20247;-78
2022/06/23 08:03:11;;;;;;;;;;;;;;;;;;6242929;23;19907;-77
2022/06/23 08:05:44;;;;;;;;;;;;;;;;;;6213758;23;19915;-77
2022/06/23 08:08:10;;;;;;;;;;;;;;;;;;6213750;23;20238;-76
2022/06/23 08:10:36;;;;;;;;;;;;;;;;;;6239144;23;20366;-79
2022/06/23 08:13:05;;;;;;;;;;;;;;;;;;6244474;23;19907;-78
2022/06/23 08:18:26;;;;;;;;;;;;;;;;;;6224331;23;19915;-78
2022/06/23 08:20:53;;;;;;;;;;;;;;;;;;6246123;23;19909;-80
2022/06/23 08:23:20;;;;;;;;;;;;;;;;;;6243462;23;19957;-78
2022/06/23 08:25:45;;;;;;;;;;;;;;;;;;6241836;23;20232;-80
2022/06/23 08:28:10;;;;;;;;;;;;;;;;;;6242710;23;19915;-78
2022/06/23 08:30:38;;;;;;;;;;;;;;;;;;6243411;23;19907;-77
2022/06/23 08:33:03;;;;;;;;;;;;;;;;;;6221316;23;19934;-76
2022/06/23 08:35:39;;;;;;;;;;;;;;;;;;6220378;23;19907;-79
2022/06/23 08:38:06;;;;;;;;;;;;;;;;;;6243534;23;19957;-79
2022/06/23 08:40:35;;;;;;;;;;;;;;;;;;6217825;23;20311;-81
2022/06/23 08:43:07;;;;;;;;;;;;;;;;;;6246005;23;19907;-78
2022/06/23 08:45:36;;;;;;;;;;;;;;;;;;6193623;23;19908;-80
2022/06/23 08:48:05;;;;;;;;;;;;;;;;;;6218571;23;19987;-78
2022/06/23 08:50:31;;;;;;;;;;;;;;;;;;6243079;23;19934;-77
2022/06/23 08:52:59;;;;;;;;;;;;;;;;;;6244141;23;19918;-77
2022/06/23 08:55:30;;;;;;;;;;;;;;;;;;6245879;23;19914;-78
2022/06/23 08:57:58;;;;;;;;;;;;;;;;;;6217132;23;19908;-79
2022/06/23 09:00:29;;;;;;;;;;;;;;;;;;6242153;23;19941;-77
2022/06/23 09:02:57;;;;;;;;;;;;;;;;;;6242073;23;20315;-75
2022/06/23 09:05:26;;;;;;;;;;;;;;;;;;6216762;23;19907;-79
2022/06/23 09:07:51;;;;;;;;;;;;;;;;;;6243760;23;19907;-79
2022/06/23 09:10:28;;;;;;;;;;;;;;;;;;6243503;23;19930;-79
2022/06/23 09:13:00;;;;;;;;;;;;;;;;;;6243174;23;19915;-79
2022/06/23 09:15:35;;;;;;;;;;;;;;;;;;6220671;23;19911;-78
2022/06/23 09:18:04;;;;;;;;;;;;;;;;;;6216373;23;19934;-78
2022/06/23 09:20:32;;;;;;;;;;;;;;;;;;6217007;23;20005;-78
2022/06/23 09:23:03;;;;;;;;;;;;;;;;;;6216521;23;19925;-78
2022/06/23 09:25:48;;;;;;;;;;;;;;;;;;6244183;23;20377;-79
2022/06/23 09:28:15;;;;;;;;;;;;;;;;;;6242086;23;19914;-76
2022/06/23 09:30:57;;;;;;;;;;;;;;;;;;6217396;23;20022;-79
2022/06/23 09:33:27;;;;;;;;;;;;;;;;;;6244012;23;19904;-79
2022/06/23 09:36:04;;;;;;;;;;;;;;;;;;6199062;23;20346;-78
2022/06/23 09:38:48;;;;;;;;;;;;;;;;;;6216805;23;19962;-81
2022/06/23 09:41:32;;;;;;;;;;;;;;;;;;6218604;23;19978;-76
2022/06/23 09:44:11;;;;;;;;;;;;;;;;;;6244887;23;19927;-80
2022/06/23 09:46:46;;;;;;;;;;;;;;;;;;6215160;23;19904;-79
2022/06/23 09:49:21;;;;;;;;;;;;;;;;;;6217456;23;19912;-79
2022/06/23 09:51:52;;;;;;;;;;;;;;;;;;6243389;23;19907;-79
2022/06/23 09:54:17;;;;;;;;;;;;;;;;;;6248902;23;19934;-79
2022/06/23 09:56:51;;;;;;;;;;;;;;;;;;6245630;23;19908;-79
2022/06/23 09:59:19;;;;;;;;;;;;;;;;;;6246901;23;19946;-78
2022/06/23 10:02:04;;;;;;;;;;;;;;;;;;6244312;23;19907;-79
2022/06/23 10:04:44;;;;;;;;;;;;;;;;;;6246335;23;20267;-79
2022/06/23 10:07:28;;;;;;;;;;;;;;;;;;6244994;23;20255;-80
2022/06/23 10:10:04;;;;;;;;;;;;;;;;;;6216104;23;19915;-80
2022/06/23 10:12:36;;;;;;;;;;;;;;;;;;6244833;23;19970;-79
2022/06/23 10:15:10;;;;;;;;;;;;;;;;;;6251700;23;20393;-79
2022/06/23 10:17:35;;;;;;;;;;;;;;;;;;6245181;23;19943;-78
2022/06/23 10:20:03;;;;;;;;;;;;;;;;;;6243450;23;19998;-79
2022/06/23 10:22:38;;;;;;;;;;;;;;;;;;6242644;23;19907;-78
2022/06/23 10:25:12;;;;;;;;;;;;;;;;;;6245474;23;19934;-80
2022/06/23 10:27:40;;;;;;;;;;;;;;;;;;6220347;23;19907;-79
2022/06/23 10:30:16;;;;;;;;;;;;;;;;;;6249612;23;19907;-78
2022/06/23 10:32:45;;;;;;;;;;;;;;;;;;6247256;23;19907;-79
2022/06/23 10:35:29;;;;;;;;;;;;;;;;;;6249776;23;20493;-79
2022/06/23 10:37:54;;;;;;;;;;;;;;;;;;6248674;23;19935;-79
2022/06/23 10:40:19;;;;;;;;;;;;;;;;;;6245959;23;19914;-77
2022/06/23 10:42:45;;;;;;;;;;;;;;;;;;6245446;23;19956;-78
2022/06/23 10:45:29;;;;;;;;;;;;;;;;;;6245201;23;19914;-79
2022/06/23 10:47:54;;;;;;;;;;;;;;;;;;6242729;23;19922;-79
2022/06/23 10:50:38;;;;;;;;;;;;;;;;;;6245542;23;19907;-77
2022/06/23 10:53:05;;;;;;;;;;;;;;;;;;6243653;23;20259;-78
2022/06/23 10:55:49;;;;;;;;;;;;;;;;;;6251696;23;19931;-77
2022/06/23 10:58:14;;;;;;;;;;;;;;;;;;6243920;23;19907;-77
2022/06/23 11:00:52;;;;;;;;;;;;;;;;;;6243007;23;19908;-78
2022/06/23 11:03:23;;;;;;;;;;;;;;;;;;6243888;23;19915;-77
2022/06/23 11:05:52;;;;;;;;;;;;;;;;;;6243903;23;19929;-78
2022/06/23 11:08:20;;;;;;;;;;;;;;;;;;6242930;23;19915;-77
2022/06/23 11:10:46;;;;;;;;;;;;;;;;;;6243030;23;19965;-80
2022/06/23 11:13:11;;;;;;;;;;;;;;;;;;6242521;23;19903;-77
2022/06/23 11:15:44;;;;;;;;;;;;;;;;;;6243409;23;19930;-79
2022/06/23 11:18:15;;;;;;;;;;;;;;;;;;6243358;23;19934;-80
2022/06/23 11:20:46;;;;;;;;;;;;;;;;;;6244260;23;19930;-79
2022/06/23 11:23:11;;;;;;;;;;;;;;;;;;6243867;23;19914;-79
2022/06/23 11:25:43;;;;;;;;;;;;;;;;;;6244949;23;19935;-78
2022/06/23 11:28:08;;;;;;;;;;;;;;;;;;6218242;23;19966;-78
2022/06/23 11:30:38;;;;;;;;;;;;;;;;;;6245597;23;20319;-79
2022/06/23 11:33:17;;;;;;;;;;;;;;;;;;6193625;23;19916;-79
2022/06/23 11:36:01;;;;;;;;;;;;;;;;;;6242832;23;19908;-79
2022/06/23 11:38:45;;;;;;;;;;;;;;;;;;6242413;23;19986;-79
2022/06/23 11:41:16;;;;;;;;;;;;;;;;;;6243145;23;19907;-79
2022/06/23 11:43:48;;;;;;;;;;;;;;;;;;6216858;23;19930;-78
2022/06/23 11:46:16;;;;;;;;;;;;;;;;;;6244338;23;19907;-78
2022/06/23 11:48:41;;;;;;;;;;;;;;;;;;6244297;23;19908;-78
2022/06/23 11:51:12;;;;;;;;;;;;;;;;;;6245430;23;19981;-78
2022/06/23 11:53:45;;;;;;;;;;;;;;;;;;6243554;23;19914;-78
2022/06/23 11:56:21;;;;;;;;;;;;;;;;;;6194053;23;20112;-79
2022/06/23 11:58:53;;;;;;;;;;;;;;;;;;6216348;23;19913;-78
2022/06/23 12:01:20;;;;;;;;;;;;;;;;;;6243424;23;19907;-78
2022/06/23 12:03:54;;;;;;;;;;;;;;;;;;6217467;23;19914;-78
2022/06/23 12:06:28;;;;;;;;;;;;;;;;;;6243870;23;20316;-78
2022/06/23 12:09:07;;;;;;;;;;;;;;;;;;6245150;23;19989;-79
2022/06/23 12:11:32;;;;;;;;;;;;;;;;;;6218445;23;20053;-76
2022/06/23 12:13:58;;;;;;;;;;;;;;;;;;6218365;23;19908;-75
2022/06/23 12:16:23;;;;;;;;;;;;;;;;;;6228430;23;19965;-77
2022/06/23 12:18:50;;;;;;;;;;;;;;;;;;6187447;23;19911;-78
2022/06/23 12:21:26;;;;;;;;;;;;;;;;;;6188550;23;19911;-77
2022/06/23 12:24:07;;;;;;;;;;;;;;;;;;6214562;23;19908;-77
2022/06/23 12:26:36;;;;;;;;;;;;;;;;;;6187748;23;19908;-77
2022/06/23 12:29:20;;;;;;;;;;;;;;;;;;6188229;23;19907;-76
2022/06/23 12:32:11;;;;;;;;;;;;;;;;;;6214850;23;20323;-78
2022/06/23 12:34:39;;;;;;;;;;;;;;;;;;6209911;23;20286;-78
2022/06/23 12:37:04;;;;;;;;;;;;;;;;;;6223508;23;20319;-78
2022/06/23 12:39:37;;;;;;;;;;;;;;;;;;6217108;23;19919;-78
2022/06/23 12:42:10;;;;;;;;;;;;;;;;;;6188316;23;19908;-79
2022/06/23 12:44:35;;;;;;;;;;;;;;;;;;6188069;23;19934;-78
2022/06/23 12:47:13;;;;;;;;;;;;;;;;;;6187739;23;19960;-77
2022/06/23 12:50:01;;;;;;;;;;;;;;;;;;6214948;23;20034;-78
2022/06/23 12:52:35;;;;;;;;;;;;;;;;;;6187969;23;20329;-78
2022/06/23 12:55:05;;;;;;;;;;;;;;;;;;6214575;23;19915;-78
2022/06/23 12:57:34;;;;;;;;;;;;;;;;;;6193425;23;20256;-77
2022/06/23 13:00:23;;;;;;;;;;;;;;;;;;6163270;23;19908;-78
2022/06/23 13:02:48;;;;;;;;;;;;;;;;;;6172356;23;20220;-77
2022/06/23 13:05:30;;;;;;;;;;;;;;;;;;6214872;23;19938;-79
2022/06/23 13:08:06;;;;;;;;;;;;;;;;;;6214665;23;20224;-78
2022/06/23 13:10:52;;;;;;;;;;;;;;;;;;6187413;23;19955;-78
2022/06/23 13:13:19;;;;;;;;;;;;;;;;;;6213501;23;20302;-78
2022/06/23 13:15:49;;;;;;;;;;;;;;;;;;6188740;23;19987;-77
2022/06/23 13:18:14;;;;;;;;;;;;;;;;;;6235812;23;19911;-78
2022/06/23 13:20:47;;;;;;;;;;;;;;;;;;6244980;23;19943;-79
2022/06/23 13:23:21;;;;;;;;;;;;;;;;;;6217810;23;19915;-78
2022/06/23 13:25:50;;;;;;;;;;;;;;;;;;6244526;23;19914;-79
2022/06/23 13:28:36;;;;;;;;;;;;;;;;;;6244653;23;19913;-78
2022/06/23 13:31:18;;;;;;;;;;;;;;;;;;6244040;23;19908;-78
2022/06/23 13:33:50;;;;;;;;;;;;;;;;;;6218129;23;20278;-78
2022/06/23 13:36:15;;;;;;;;;;;;;;;;;;6249729;23;19982;-79
2022/06/23 13:38:44;;;;;;;;;;;;;;;;;;6249567;23;19915;-78
2022/06/23 13:41:18;;;;;;;;;;;;;;;;;;6244777;23;19907;-79
2022/06/23 13:46:33;;;;;;;;;;;;;;;;;;6221776;23;19914;-78
2022/06/23 13:49:01;;;;;;;;;;;;;;;;;;6217569;23;19907;-80
2022/06/23 13:51:28;;;;;;;;;;;;;;;;;;6218276;23;19911;-79
2022/06/23 13:54:03;;;;;;;;;;;;;;;;;;6217750;23;19908;-77
2022/06/23 13:56:49;;;;;;;;;;;;;;;;;;6221594;23;19914;-78
2022/06/23 13:59:17;;;;;;;;;;;;;;;;;;6247056;23;19908;-79
2022/06/23 14:02:02;;;;;;;;;;;;;;;;;;6218448;23;19947;-80
2022/06/23 14:04:31;;;;;;;;;;;;;;;;;;6217792;23;19908;-79
2022/06/23 14:07:01;;;;;;;;;;;;;;;;;;6244203;23;20188;-77
2022/06/23 14:09:34;;;;;;;;;;;;;;;;;;6243864;23;20219;-79
2022/06/23 14:12:17;;;;;;;;;;;;;;;;;;6244848;23;20243;-79
2022/06/23 14:15:03;;;;;;;;;;;;;;;;;;6244257;23;19914;-79
2022/06/23 14:17:37;;;;;;;;;;;;;;;;;;6247124;23;20333;-79
2022/06/23 14:20:05;;;;;;;;;;;;;;;;;;6218709;23;19966;-79
2022/06/23 14:22:36;;;;;;;;;;;;;;;;;;6244647;23;19978;-80
2022/06/23 14:25:04;;;;;;;;;;;;;;;;;;6217941;23;19931;-79
2022/06/23 14:27:45;;;;;;;;;;;;;;;;;;6218407;23;19915;-79
2022/06/23 14:30:16;;;;;;;;;;;;;;;;;;6244542;23;19908;-79
2022/06/23 14:32:47;;;;;;;;;;;;;;;;;;6218973;23;20301;-79
2022/06/23 14:35:16;;;;;;;;;;;;;;;;;;6219875;23;20321;-86
2022/06/23 14:37:43;;;;;;;;;;;;;;;;;;6220073;23;20038;-87
2022/06/23 14:40:11;;;;;;;;;;;;;;;;;;6223755;23;19907;-87
2022/06/23 14:42:42;;;;;;;;;;;;;;;;;;6248514;23;19911;-86
2022/06/23 14:45:26;;;;;;;;;;;;;;;;;;6246910;23;19914;-87
2022/06/23 14:48:03;;;;;;;;;;;;;;;;;;6246956;23;19955;-88
2022/06/23 14:50:29;;;;;;;;;;;;;;;;;;6247288;23;19914;-87
2022/06/23 14:53:06;;;;;;;;;;;;;;;;;;6219642;23;19908;-87
2022/06/23 14:55:32;;;;;;;;;;;;;;;;;;6246931;23;20378;-87
2022/06/23 14:58:01;;;;;;;;;;;;;;;;;;6224453;23;19911;-86
2022/06/23 15:00:26;;;;;;;;;;;;;;;;;;6250092;23;19978;-86
2022/06/23 15:02:54;;;;;;;;;;;;;;;;;;6248498;23;19914;-86
2022/06/23 15:05:43;;;;;;;;;;;;;;;;;;6219586;23;19908;-86
2022/06/23 15:08:08;;;;;;;;;;;;;;;;;;6219885;23;20037;-86
2022/06/23 15:10:37;;;;;;;;;;;;;;;;;;6219818;23;19911;-86
2022/06/23 15:13:37;;;;;;;;;;;;;;;;;;6246237;23;19914;-86
2022/06/23 15:16:12;;;;;;;;;;;;;;;;;;6153924;23;19909;-86
2022/06/23 15:18:43;;;;;;;;;;;;;;;;;;6209281;23;19919;-87
2022/06/23 15:24:22;;;;;;;;;;;;;;;;;;6246646;23;19931;-86
2022/06/23 15:26:53;;;;;;;;;;;;;;;;;;6219933;23;19907;-86
2022/06/23 15:29:19;;;;;;;;;;;;;;;;;;6219283;23;19915;-86
2022/06/23 15:31:44;;;;;;;;;;;;;;;;;;6246354;23;19915;-87
2022/06/23 15:34:45;;;;;;;;;;;;;;;;;;6246174;23;19997;-87
2022/06/23 15:37:11;;;;;;;;;;;;;;;;;;6153480;23;19909;-86
2022/06/23 15:39:36;;;;;;;;;;;;;;;;;;6205384;23;19914;-87
2022/06/23 15:42:11;;;;;;;;;;;;;;;;;;6221341;23;19908;-86
2022/06/23 15:44:36;;;;;;;;;;;;;;;;;;6247920;23;19903;-87
2022/06/23 15:47:07;;;;;;;;;;;;;;;;;;6246402;23;19939;-86
2022/06/23 15:49:32;;;;;;;;;;;;;;;;;;6245612;23;20366;-87
2022/06/23 15:52:00;;;;;;;;;;;;;;;;;;6246210;23;19908;-86
2022/06/23 15:54:38;;;;;;;;;;;;;;;;;;6246329;23;19911;-87
2022/06/23 15:57:06;;;;;;;;;;;;;;;;;;6219036;23;19969;-86
2022/06/23 15:59:37;;;;;;;;;;;;;;;;;;6223133;23;19907;-86
2022/06/23 16:02:15;;;;;;;;;;;;;;;;;;6249895;23;19914;-86
2022/06/23 16:04:41;;;;;;;;;;;;;;;;;;6245560;23;19914;-87
2022/06/23 16:07:11;;;;;;;;;;;;;;;;;;6219537;23;19907;-86
2022/06/23 16:09:39;;;;;;;;;;;;;;;;;;6246097;23;19965;-85
2022/06/23 16:12:06;;;;;;;;;;;;;;;;;;6246028;23;19978;-87
2022/06/23 16:14:40;;;;;;;;;;;;;;;;;;6245647;23;19914;-88
2022/06/23 16:17:06;;;;;;;;;;;;;;;;;;6246389;23;20216;-86
2022/06/23 16:19:33;;;;;;;;;;;;;;;;;;6219659;23;19907;-87
2022/06/23 16:22:00;;;;;;;;;;;;;;;;;;6222197;23;19907;-86
2022/06/23 16:24:34;;;;;;;;;;;;;;;;;;6219315;23;19969;-85
2022/06/23 16:27:10;;;;;;;;;;;;;;;;;;6220753;23;20329;-87
2022/06/23 16:29:49;;;;;;;;;;;;;;;;;;6218995;23;20402;-87
2022/06/23 16:32:35;;;;;;;;;;;;;;;;;;6219497;23;19907;-86
2022/06/23 16:35:00;;;;;;;;;;;;;;;;;;6198369;23;19903;-85
2022/06/23 16:37:28;;;;;;;;;;;;;;;;;;6219099;23;19919;-86
2022/06/23 16:40:03;;;;;;;;;;;;;;;;;;6247748;23;19904;-86
2022/06/23 16:42:40;;;;;;;;;;;;;;;;;;6252591;23;19907;-86
2022/06/23 16:45:20;;;;;;;;;;;;;;;;;;6218820;23;20025;-87
2022/06/23 16:47:49;;;;;;;;;;;;;;;;;;6246564;23;19915;-87
2022/06/23 16:50:20;;;;;;;;;;;;;;;;;;6246926;23;19907;-86
2022/06/23 16:53:01;;;;;;;;;;;;;;;;;;6255544;23;19917;-85
2022/06/23 16:55:31;;;;;;;;;;;;;;;;;;6226847;23;20278;-85
2022/06/23 16:58:15;;;;;;;;;;;;;;;;;;6220924;23;19974;-86
2022/06/23 17:00:49;;;;;;;;;;;;;;;;;;6247457;23;20227;-87
2022/06/23 17:03:17;;;;;;;;;;;;;;;;;;6218912;23;20257;-86
2022/06/23 17:05:42;;;;;;;;;;;;;;;;;;6193757;23;19965;-86
2022/06/23 17:08:08;;;;;;;;;;;;;;;;;;6218472;23;19904;-86
2022/06/23 17:10:40;;;;;;;;;;;;;;;;;;6245261;23;19981;-87
2022/06/23 17:13:08;;;;;;;;;;;;;;;;;;6218503;23;19907;-86
2022/06/23 17:15:35;;;;;;;;;;;;;;;;;;6245930;23;19939;-87
2022/06/23 17:18:01;;;;;;;;;;;;;;;;;;6245419;23;19986;-87
2022/06/23 17:20:31;;;;;;;;;;;;;;;;;;6252230;22;20215;-86
2022/06/23 17:22:57;;;;;;;;;;;;;;;;;;6220627;23;19913;-86
2022/06/23 17:25:42;;;;;;;;;;;;;;;;;;6218367;23;19907;-87
2022/06/23 17:28:17;;;;;;;;;;;;;;;;;;6228855;23;19911;-87